createdAt,value
2018-07-30T00:02:03.541Z,57.16
2018-07-30T00:04:32.525Z,58.15
2018-07-30T00:07:01.746Z,57.69
2018-07-30T00:09:30.666Z,58.18
2018-07-30T00:11:59.635Z,57.98
2018-07-30T00:14:28.628Z,57.00
2018-07-30T00:16:57.705Z,57.48
2018-07-30T00:19:26.650Z,56.48
2018-07-30T00:21:55.581Z,56.93
2018-07-30T00:24:24.497Z,57.82
2018-07-30T00:26:54.724Z,57.85
2018-07-30T00:29:23.666Z,58.24
2018-07-30T00:31:52.625Z,58.58
2018-07-30T00:34:21.603Z,57.72
2018-07-30T00:36:51.381Z,58.02
2018-07-30T00:39:20.285Z,58.35
2018-07-30T00:41:49.228Z,57.96
2018-07-30T00:44:18.176Z,59.01
2018-07-30T00:46:47.112Z,58.64
2018-07-30T00:49:16.056Z,58.94
2018-07-30T00:51:45.025Z,59.67
2018-07-30T00:54:14.004Z,59.65
2018-07-30T00:56:42.996Z,59.17
2018-07-30T00:59:11.910Z,60.70
2018-07-30T01:01:40.829Z,60.38
2018-07-30T01:04:09.787Z,59.61
2018-07-30T01:06:38.735Z,59.15
2018-07-30T01:09:08.697Z,58.68
2018-07-30T01:11:37.661Z,58.79
2018-07-30T01:14:06.808Z,58.93
2018-07-30T01:16:35.905Z,58.39
2018-07-30T01:19:04.819Z,58.77
2018-07-30T01:21:33.822Z,60.01
2018-07-30T01:24:02.792Z,59.92
2018-07-30T01:26:31.746Z,58.10
2018-07-30T01:29:00.864Z,59.11
2018-07-30T01:31:29.807Z,58.70
2018-07-30T01:33:58.735Z,59.48
2018-07-30T01:36:27.656Z,61.21
2018-07-30T01:38:56.595Z,60.30
2018-07-30T01:41:25.504Z,60.07
2018-07-30T01:43:54.407Z,60.04
2018-07-30T01:46:23.394Z,60.24
2018-07-30T01:48:52.332Z,60.14
2018-07-30T01:51:21.385Z,59.54
2018-07-30T01:53:50.309Z,60.27
2018-07-30T01:56:19.373Z,58.92
2018-07-30T01:58:48.310Z,59.46
2018-07-30T02:01:17.696Z,59.59
2018-07-30T02:03:46.621Z,59.20
2018-07-30T02:06:15.556Z,58.89
2018-07-30T02:08:44.534Z,59.80
2018-07-30T02:11:14.480Z,58.86
2018-07-30T02:13:43.445Z,59.49
2018-07-30T02:16:12.387Z,60.01
2018-07-30T02:18:41.341Z,59.51
2018-07-30T02:21:10.428Z,59.88
2018-07-30T02:23:39.360Z,59.78
2018-07-30T02:26:08.286Z,60.18
2018-07-30T02:28:37.294Z,60.42
2018-07-30T02:31:06.495Z,60.75
2018-07-30T02:33:35.444Z,60.48
2018-07-30T02:36:04.392Z,60.58
2018-07-30T02:38:33.374Z,61.00
2018-07-30T02:41:05.968Z,60.19
2018-07-30T02:43:34.991Z,60.37
2018-07-30T02:46:03.904Z,60.24
2018-07-30T02:48:32.856Z,60.64
2018-07-30T02:51:01.776Z,60.33
2018-07-30T02:53:30.730Z,60.40
2018-07-30T02:55:59.684Z,60.44
2018-07-30T02:58:28.665Z,62.15
2018-07-30T03:00:57.585Z,61.56
2018-07-30T03:03:26.488Z,62.79
2018-07-30T03:05:55.434Z,63.17
2018-07-30T03:08:24.369Z,63.14
2018-07-30T03:10:53.638Z,63.56
2018-07-30T03:13:22.557Z,63.59
2018-07-30T03:15:51.483Z,63.33
2018-07-30T03:18:20.449Z,63.82
2018-07-30T03:20:49.362Z,63.66
2018-07-30T03:23:18.294Z,64.53
2018-07-30T03:25:47.253Z,63.86
2018-07-30T03:28:16.180Z,65.45
2018-07-30T03:30:46.833Z,64.42
2018-07-30T03:33:15.964Z,65.88
2018-07-30T03:35:44.879Z,65.02
2018-07-30T03:38:13.832Z,63.88
2018-07-30T03:40:42.798Z,65.63
2018-07-30T03:43:11.706Z,65.37
2018-07-30T03:45:40.695Z,66.34
2018-07-30T03:48:09.632Z,66.25
2018-07-30T03:50:38.547Z,66.80
2018-07-30T03:53:07.469Z,66.93
2018-07-30T03:55:36.387Z,65.85
2018-07-30T03:58:05.390Z,66.22
2018-07-30T04:00:34.295Z,65.80
2018-07-30T04:03:03.256Z,67.06
2018-07-30T04:05:32.187Z,65.90
2018-07-30T04:08:01.173Z,66.08
2018-07-30T04:10:30.098Z,66.36
2018-07-30T04:12:59.004Z,66.00
2018-07-30T04:15:27.923Z,65.36
2018-07-30T04:17:56.888Z,65.34
2018-07-30T04:20:25.832Z,66.12
2018-07-30T04:22:54.776Z,67.04
2018-07-30T04:25:23.887Z,66.52
2018-07-30T04:27:52.840Z,66.55
2018-07-30T04:30:21.796Z,66.38
2018-07-30T04:32:50.744Z,65.30
2018-07-30T04:35:19.720Z,66.56
2018-07-30T04:37:48.661Z,66.69
2018-07-30T04:40:17.620Z,67.91
2018-07-30T04:42:46.564Z,64.90
2018-07-30T04:45:15.557Z,66.57
2018-07-30T04:47:44.497Z,66.27
2018-07-30T04:50:13.544Z,64.08
2018-07-30T04:52:42.428Z,66.33
2018-07-30T04:55:11.379Z,64.81
2018-07-30T04:57:40.342Z,64.95
2018-07-30T05:00:09.827Z,66.29
2018-07-30T05:02:38.908Z,65.70
2018-07-30T05:05:08.234Z,65.73
2018-07-30T05:07:37.545Z,66.34
2018-07-30T05:10:06.510Z,67.01
2018-07-30T05:12:35.593Z,65.93
2018-07-30T05:15:04.753Z,66.99
2018-07-30T05:17:33.699Z,67.25
2018-07-30T05:20:02.802Z,68.33
2018-07-30T05:22:31.945Z,68.58
2018-07-30T05:25:00.959Z,67.13
2018-07-30T05:27:30.022Z,65.57
2018-07-30T05:29:59.137Z,66.87
2018-07-30T05:32:28.156Z,65.90
2018-07-30T05:34:57.307Z,65.29
2018-07-30T05:37:26.256Z,64.88
2018-07-30T05:39:55.196Z,64.63
2018-07-30T05:42:24.109Z,64.39
2018-07-30T05:44:53.082Z,64.34
2018-07-30T05:47:22.008Z,64.44
2018-07-30T05:49:50.927Z,65.89
2018-07-30T05:52:19.965Z,65.55
2018-07-30T05:54:48.911Z,65.09
2018-07-30T05:57:17.846Z,67.87
2018-07-30T05:59:46.884Z,68.68
2018-07-30T06:02:15.773Z,66.08
2018-07-30T06:04:44.746Z,63.54
2018-07-30T06:07:13.824Z,63.70
2018-07-30T06:09:43.339Z,63.44
2018-07-30T06:12:12.186Z,61.74
2018-07-30T06:14:41.323Z,60.93
2018-07-30T06:17:10.284Z,61.21
2018-07-30T06:19:39.201Z,60.16
2018-07-30T06:22:08.131Z,58.80
2018-07-30T06:24:37.076Z,58.09
2018-07-30T06:27:06.710Z,58.46
2018-07-30T06:29:35.867Z,54.85
2018-07-30T06:32:04.768Z,53.40
2018-07-30T06:34:33.692Z,50.43
2018-07-30T06:37:02.663Z,48.62
2018-07-30T06:39:31.593Z,48.35
2018-07-30T06:42:00.542Z,43.85
2018-07-30T06:44:29.530Z,43.18
2018-07-30T06:46:58.441Z,41.22
2018-07-30T06:49:27.372Z,41.32
2018-07-30T06:51:56.298Z,39.42
2018-07-30T06:54:25.253Z,37.27
2018-07-30T06:56:54.181Z,36.82
2018-07-30T06:59:23.434Z,37.40
2018-07-30T07:01:53.023Z,37.21
2018-07-30T07:04:22.348Z,35.54
2018-07-30T07:06:51.349Z,35.80
2018-07-30T07:09:20.283Z,37.52
2018-07-30T07:11:49.232Z,35.38
2018-07-30T07:14:18.182Z,36.36
2018-07-30T07:16:47.137Z,36.10
2018-07-30T07:19:16.008Z,35.91
2018-07-30T07:21:45.271Z,36.20
2018-07-30T07:24:14.065Z,35.40
2018-07-30T07:26:43.108Z,35.56
2018-07-30T07:29:12.173Z,36.01
2018-07-30T07:31:41.091Z,36.64
2018-07-30T07:34:10.028Z,38.40
2018-07-30T07:36:38.963Z,41.38
2018-07-30T07:39:09.630Z,39.96
2018-07-30T07:41:38.593Z,40.64
2018-07-30T07:44:07.458Z,41.17
2018-07-30T07:46:36.641Z,41.72
2018-07-30T07:49:05.567Z,39.24
2018-07-30T07:51:34.499Z,37.18
2018-07-30T07:54:03.416Z,37.87
2018-07-30T07:56:32.424Z,38.47
2018-07-30T07:59:01.398Z,37.61
2018-07-30T08:01:30.336Z,36.64
2018-07-30T08:03:59.333Z,37.62
2018-07-30T08:06:28.177Z,39.24
2018-07-30T08:08:57.089Z,39.07
2018-07-30T08:11:26.721Z,41.10
2018-07-30T08:13:55.637Z,40.21
2018-07-30T08:16:24.854Z,41.30
2018-07-30T08:18:53.688Z,39.27
2018-07-30T08:21:22.600Z,37.64
2018-07-30T08:23:51.624Z,39.82
2018-07-30T08:26:20.583Z,37.51
2018-07-30T08:28:49.522Z,33.89
2018-07-30T08:31:18.495Z,34.63
2018-07-30T08:33:47.392Z,33.27
2018-07-30T08:36:16.315Z,33.49
2018-07-30T08:38:45.204Z,33.46
2018-07-30T08:41:14.275Z,31.94
2018-07-30T08:43:43.193Z,32.57
2018-07-30T08:46:12.104Z,34.19
2018-07-30T08:48:41.034Z,33.90
2018-07-30T08:51:09.943Z,33.19
2018-07-30T08:53:38.947Z,32.94
2018-07-30T08:56:07.869Z,32.98
2018-07-30T08:58:36.995Z,31.50
2018-07-30T09:01:05.941Z,31.19
2018-07-30T09:03:34.911Z,30.84
2018-07-30T09:06:03.860Z,31.80
2018-07-30T09:08:32.776Z,32.27
2018-07-30T09:11:01.728Z,30.89
2018-07-30T09:13:30.664Z,32.87
2018-07-30T09:15:59.624Z,33.17
2018-07-30T09:18:28.652Z,31.46
2018-07-30T09:20:57.979Z,31.25
2018-07-30T09:23:27.047Z,30.59
2018-07-30T09:25:56.044Z,31.03
2018-07-30T09:28:24.986Z,29.37
2018-07-30T09:30:53.903Z,29.68
2018-07-30T09:33:22.857Z,30.60
2018-07-30T09:35:51.798Z,27.79
2018-07-30T09:38:20.711Z,27.62
2018-07-30T09:40:49.624Z,26.53
2018-07-30T09:43:18.585Z,26.83
2018-07-30T09:45:47.557Z,27.96
2018-07-30T09:48:16.465Z,27.77
2018-07-30T09:50:45.567Z,27.50
2018-07-30T09:53:14.622Z,27.89
2018-07-30T09:55:44.699Z,29.04
2018-07-30T09:58:13.620Z,27.68
2018-07-30T10:00:48.005Z,27.29
2018-07-30T10:03:17.014Z,26.69
2018-07-30T10:05:45.926Z,27.06
2018-07-30T10:08:14.878Z,27.15
2018-07-30T10:10:43.789Z,26.82
2018-07-30T10:13:12.867Z,27.01
2018-07-30T10:15:42.163Z,27.44
2018-07-30T10:18:11.245Z,27.07
2018-07-30T10:20:40.112Z,27.60
2018-07-30T10:23:09.039Z,27.71
2018-07-30T10:25:37.998Z,26.41
2018-07-30T10:28:07.223Z,27.32
2018-07-30T10:30:36.118Z,28.58
2018-07-30T10:33:05.065Z,28.98
2018-07-30T10:35:33.964Z,28.97
2018-07-30T10:38:02.927Z,30.04
2018-07-30T10:40:31.794Z,31.13
2018-07-30T10:43:00.807Z,32.15
2018-07-30T10:45:29.709Z,31.96
2018-07-30T10:47:58.667Z,32.78
2018-07-30T10:50:27.659Z,33.14
2018-07-30T10:52:56.700Z,33.78
2018-07-30T10:55:25.632Z,33.39
2018-07-30T10:57:54.626Z,33.65
2018-07-30T11:00:23.528Z,33.59
2018-07-30T11:02:52.445Z,30.70
2018-07-30T11:05:21.360Z,27.78
2018-07-30T11:07:50.323Z,27.26
2018-07-30T11:10:19.223Z,27.43
2018-07-30T11:12:48.234Z,28.17
2018-07-30T11:15:17.135Z,26.51
2018-07-30T11:17:46.056Z,26.41
2018-07-30T11:20:15.053Z,25.38
2018-07-30T11:22:43.967Z,25.56
2018-07-30T11:25:12.890Z,26.11
2018-07-30T11:27:41.823Z,25.33
2018-07-30T11:30:10.762Z,24.77
2018-07-30T11:32:39.717Z,23.19
2018-07-30T11:35:08.658Z,25.72
2018-07-30T11:37:37.591Z,24.99
2018-07-30T11:40:06.524Z,26.78
2018-07-30T11:42:35.424Z,27.31
2018-07-30T11:45:04.424Z,25.95
2018-07-30T11:47:33.345Z,25.70
2018-07-30T11:50:02.248Z,26.43
2018-07-30T11:52:31.157Z,26.54
2018-07-30T11:55:00.239Z,27.23
2018-07-30T11:57:29.155Z,25.80
2018-07-30T11:59:58.084Z,24.27
2018-07-30T12:02:27.028Z,24.95
2018-07-30T12:04:56.140Z,26.54
2018-07-30T12:07:25.057Z,25.76
2018-07-30T12:09:54.031Z,25.30
2018-07-30T12:12:22.983Z,24.80
2018-07-30T12:14:51.965Z,25.01
2018-07-30T12:17:23.861Z,24.53
2018-07-30T12:19:52.782Z,27.34
2018-07-30T12:22:21.687Z,26.03
2018-07-30T12:24:50.811Z,26.88
2018-07-30T12:27:19.756Z,26.10
2018-07-30T12:29:48.695Z,24.39
2018-07-30T12:32:17.611Z,24.68
2018-07-30T12:34:46.564Z,23.62
2018-07-30T12:37:15.597Z,24.05
2018-07-30T12:39:44.486Z,24.86
2018-07-30T12:42:13.401Z,24.43
2018-07-30T12:44:42.373Z,22.90
2018-07-30T12:47:11.296Z,23.00
2018-07-30T12:49:40.258Z,23.88
2018-07-30T12:52:09.183Z,25.45
2018-07-30T12:54:38.114Z,23.78
2018-07-30T12:57:07.435Z,24.06
2018-07-30T12:59:36.392Z,25.19
2018-07-30T13:02:05.344Z,23.90
2018-07-30T13:04:34.250Z,24.25
2018-07-30T13:07:03.212Z,24.05
2018-07-30T13:09:32.124Z,23.94
2018-07-30T13:12:01.066Z,24.01
2018-07-30T13:14:29.987Z,25.10
2018-07-30T13:16:58.908Z,25.89
2018-07-30T13:19:27.948Z,26.58
2018-07-30T13:21:57.059Z,26.85
2018-07-30T13:24:26.489Z,27.16
2018-07-30T13:26:55.403Z,27.91
2018-07-30T13:29:24.312Z,26.88
2018-07-30T13:31:53.403Z,25.76
2018-07-30T13:34:22.310Z,26.84
2018-07-30T13:36:51.265Z,28.54
2018-07-30T13:39:20.168Z,27.54
2018-07-30T13:41:49.163Z,28.83
2018-07-30T13:44:18.109Z,28.00
2018-07-30T13:46:47.113Z,26.22
2018-07-30T13:49:16.090Z,27.12
2018-07-30T13:51:45.014Z,26.22
2018-07-30T13:54:13.955Z,27.48
2018-07-30T13:56:42.838Z,27.84
2018-07-30T13:59:11.756Z,26.07
2018-07-30T14:01:40.756Z,25.85
2018-07-30T14:04:09.678Z,25.35
2018-07-30T14:06:38.600Z,25.40
2018-07-30T14:09:09.760Z,26.08
2018-07-30T14:11:38.886Z,26.09
2018-07-30T14:14:08.264Z,26.36
2018-07-30T14:16:37.186Z,26.87
2018-07-30T14:19:06.111Z,27.52
2018-07-30T14:21:35.285Z,27.35
2018-07-30T14:24:04.237Z,28.09
2018-07-30T14:26:33.158Z,27.59
2018-07-30T14:29:02.143Z,27.98
2018-07-30T14:31:31.072Z,26.77
2018-07-30T14:34:00.040Z,25.51
2018-07-30T14:36:29.013Z,26.50
2018-07-30T14:38:57.920Z,27.01
2018-07-30T14:41:26.819Z,25.10
2018-07-30T14:43:55.770Z,26.48
2018-07-30T14:46:24.689Z,27.21
2018-07-30T14:48:53.620Z,28.12
2018-07-30T14:51:22.564Z,31.18
2018-07-30T14:53:51.455Z,29.66
2018-07-30T14:56:20.410Z,27.67
2018-07-30T14:58:49.321Z,26.81
2018-07-30T15:01:18.224Z,25.77
2018-07-30T15:03:47.128Z,26.80
2018-07-30T15:06:16.133Z,26.47
2018-07-30T15:08:44.966Z,26.55
2018-07-30T15:11:13.933Z,24.14
2018-07-30T15:13:42.834Z,27.12
2018-07-30T15:16:11.763Z,28.06
2018-07-30T15:18:40.700Z,27.13
2018-07-30T15:21:09.870Z,26.95
2018-07-30T15:23:40.778Z,26.00
2018-07-30T15:26:11.600Z,27.11
2018-07-30T15:28:40.636Z,27.17
2018-07-30T15:31:09.556Z,26.71
2018-07-30T15:33:38.483Z,26.95
2018-07-30T15:36:07.468Z,26.29
2018-07-30T15:38:36.447Z,27.22
2018-07-30T15:41:05.416Z,26.83
2018-07-30T15:43:37.121Z,27.39
2018-07-30T15:46:06.039Z,27.66
2018-07-30T15:48:34.991Z,26.57
2018-07-30T15:51:08.155Z,26.98
2018-07-30T15:53:37.072Z,27.98
2018-07-30T15:56:06.198Z,26.34
2018-07-30T15:58:35.121Z,25.99
2018-07-30T16:01:08.183Z,26.67
2018-07-30T16:03:37.306Z,26.54
2018-07-30T16:06:06.304Z,26.52
2018-07-30T16:08:35.212Z,26.69
2018-07-30T16:11:04.255Z,27.35
2018-07-30T16:13:33.173Z,27.26
2018-07-30T16:16:02.256Z,27.64
2018-07-30T16:18:31.188Z,28.61
2018-07-30T16:21:00.123Z,26.63
2018-07-30T16:23:29.290Z,26.71
2018-07-30T16:25:58.213Z,26.91
2018-07-30T16:28:27.117Z,27.06
2018-07-30T16:30:56.810Z,28.15
2018-07-30T16:33:25.688Z,28.65
2018-07-30T16:35:57.777Z,28.13
2018-07-30T16:38:26.891Z,29.29
2018-07-30T16:40:56.130Z,28.42
2018-07-30T16:43:25.076Z,28.51
2018-07-30T16:45:53.982Z,30.79
2018-07-30T16:48:22.987Z,28.65
2018-07-30T16:50:52.020Z,28.73
2018-07-30T16:53:21.132Z,29.02
2018-07-30T16:55:50.092Z,28.54
2018-07-30T16:58:18.992Z,29.46
2018-07-30T17:00:47.934Z,30.59
2018-07-30T17:03:16.821Z,28.95
2018-07-30T17:05:45.730Z,29.72
2018-07-30T17:08:14.678Z,29.12
2018-07-30T17:10:43.736Z,30.86
2018-07-30T17:13:12.641Z,30.65
2018-07-30T17:15:42.456Z,30.27
2018-07-30T17:18:13.293Z,32.51
2018-07-30T17:20:42.206Z,31.27
2018-07-30T17:23:11.179Z,31.41
2018-07-30T17:25:40.058Z,31.54
2018-07-30T17:28:08.976Z,30.63
2018-07-30T17:30:37.874Z,31.13
2018-07-30T17:33:06.805Z,31.43
2018-07-30T17:35:35.715Z,31.91
2018-07-30T17:38:04.798Z,31.97
2018-07-30T17:40:33.697Z,31.76
2018-07-30T17:43:02.617Z,31.60
2018-07-30T17:45:31.599Z,32.96
2018-07-30T17:48:00.546Z,32.22
2018-07-30T17:50:29.493Z,33.50
2018-07-30T17:52:58.397Z,33.21
2018-07-30T17:55:27.333Z,33.71
2018-07-30T17:57:56.255Z,33.77
2018-07-30T18:00:25.173Z,33.04
2018-07-30T18:02:54.135Z,33.71
2018-07-30T18:05:23.105Z,35.69
2018-07-30T18:07:52.169Z,34.10
2018-07-30T18:10:21.100Z,35.55
2018-07-30T18:12:50.022Z,34.59
2018-07-30T18:15:18.965Z,34.80
2018-07-30T18:17:47.928Z,34.48
2018-07-30T18:20:16.915Z,35.05
2018-07-30T18:22:45.803Z,34.67
2018-07-30T18:25:14.727Z,34.86
2018-07-30T18:27:43.763Z,34.83
2018-07-30T18:30:12.687Z,36.44
2018-07-30T18:32:42.545Z,35.88
2018-07-30T18:35:11.470Z,35.20
2018-07-30T18:37:40.385Z,36.52
2018-07-30T18:40:09.302Z,37.19
2018-07-30T18:42:38.236Z,38.36
2018-07-30T18:45:07.596Z,37.85
2018-07-30T18:47:36.526Z,36.81
2018-07-30T18:50:05.835Z,37.44
2018-07-30T18:52:34.761Z,38.11
2018-07-30T18:55:03.718Z,38.80
2018-07-30T18:57:32.685Z,38.56
2018-07-30T19:00:01.596Z,38.46
2018-07-30T19:02:30.501Z,37.89
2018-07-30T19:04:59.527Z,38.61
2018-07-30T19:07:28.476Z,39.38
2018-07-30T19:09:57.396Z,38.94
2018-07-30T19:12:26.495Z,38.10
2018-07-30T19:14:55.451Z,41.23
2018-07-30T19:17:24.358Z,39.43
2018-07-30T19:19:53.291Z,38.83
2018-07-30T19:22:22.285Z,40.47
2018-07-30T19:24:51.645Z,39.28
2018-07-30T19:27:21.411Z,41.09
2018-07-30T19:29:50.401Z,41.28
2018-07-30T19:32:19.358Z,41.07
2018-07-30T19:34:48.275Z,41.28
2018-07-30T19:37:17.166Z,41.42
2018-07-30T19:39:46.211Z,41.80
2018-07-30T19:42:15.527Z,40.73
2018-07-30T19:44:44.538Z,41.03
2018-07-30T19:47:13.433Z,40.35
2018-07-30T19:49:42.360Z,40.54
2018-07-30T19:52:11.290Z,41.51
2018-07-30T19:54:40.223Z,42.74
2018-07-30T19:57:09.148Z,42.92
2018-07-30T19:59:38.083Z,42.07
2018-07-30T20:02:07.171Z,41.87
2018-07-30T20:04:36.089Z,42.11
2018-07-30T20:07:05.044Z,42.58
2018-07-30T20:09:33.959Z,42.72
2018-07-30T20:12:03.028Z,43.51
2018-07-30T20:14:31.976Z,44.16
2018-07-30T20:17:00.993Z,43.34
2018-07-30T20:19:29.892Z,43.03
2018-07-30T20:21:58.949Z,43.09
2018-07-30T20:24:27.891Z,41.94
2018-07-30T20:26:56.790Z,42.21
2018-07-30T20:29:25.722Z,42.24
2018-07-30T20:31:54.672Z,42.39
2018-07-30T20:34:23.612Z,42.67
2018-07-30T20:36:52.683Z,42.35
2018-07-30T20:39:21.843Z,43.15
2018-07-30T20:41:50.806Z,43.53
2018-07-30T20:44:19.943Z,44.89
2018-07-30T20:46:48.945Z,43.14
2018-07-30T20:49:17.854Z,43.06
2018-07-30T20:51:46.776Z,42.96
2018-07-30T20:54:15.686Z,42.94
2018-07-30T20:56:44.651Z,43.14
2018-07-30T20:59:13.669Z,42.78
2018-07-30T21:01:42.551Z,43.27
2018-07-30T21:04:11.492Z,43.17
2018-07-30T21:06:40.432Z,43.18
2018-07-30T21:09:10.835Z,45.79
2018-07-30T21:11:40.021Z,45.02
2018-07-30T21:14:08.987Z,44.45
2018-07-30T21:16:37.892Z,44.44
2018-07-30T21:19:06.819Z,43.90
2018-07-30T21:21:35.777Z,44.77
2018-07-30T21:24:04.716Z,45.01
2018-07-30T21:26:33.652Z,44.49
2018-07-30T21:29:02.573Z,45.66
2018-07-30T21:31:31.488Z,46.68
2018-07-30T21:34:00.498Z,46.51
2018-07-30T21:36:29.416Z,45.24
2018-07-30T21:38:58.359Z,45.84
2018-07-30T21:41:27.297Z,45.83
2018-07-30T21:43:56.224Z,45.45
2018-07-30T21:46:25.184Z,45.70
2018-07-30T21:48:54.944Z,46.17
2018-07-30T21:51:23.863Z,46.62
2018-07-30T21:53:52.854Z,46.70
2018-07-30T21:56:21.872Z,45.98
2018-07-30T21:58:50.879Z,49.04
2018-07-30T22:01:20.365Z,48.72
2018-07-30T22:03:49.376Z,48.05
2018-07-30T22:06:18.275Z,49.02
2018-07-30T22:08:47.209Z,49.53
2018-07-30T22:11:16.197Z,49.97
2018-07-30T22:13:45.135Z,49.33
2018-07-30T22:16:14.261Z,49.72
2018-07-30T22:18:43.182Z,49.21
2018-07-30T22:21:12.259Z,49.76
2018-07-30T22:23:41.276Z,49.83
2018-07-30T22:26:10.250Z,49.21
2018-07-30T22:28:39.236Z,50.35
2018-07-30T22:31:08.201Z,49.65
2018-07-30T22:33:37.180Z,50.64
2018-07-30T22:36:06.145Z,50.07
2018-07-30T22:38:35.187Z,51.66
2018-07-30T22:41:04.188Z,49.36
2018-07-30T22:43:33.111Z,49.93
2018-07-30T22:46:02.005Z,50.41
2018-07-30T22:48:30.972Z,52.12
2018-07-30T22:50:59.884Z,52.50
2018-07-30T22:53:28.834Z,51.38
2018-07-30T22:55:57.795Z,51.73
2018-07-30T22:58:26.724Z,52.83
2018-07-30T23:00:55.648Z,53.19
2018-07-30T23:03:24.714Z,52.57
2018-07-30T23:05:53.680Z,52.65
2018-07-30T23:08:22.672Z,53.75
2018-07-30T23:10:51.602Z,52.42
2018-07-30T23:13:20.545Z,52.99
2018-07-30T23:15:49.472Z,53.58
2018-07-30T23:18:18.472Z,54.38
2018-07-30T23:20:47.415Z,53.23
2018-07-30T23:23:16.376Z,54.08
2018-07-30T23:25:45.361Z,54.25
2018-07-30T23:28:14.292Z,53.11
2018-07-30T23:30:43.217Z,54.69
2018-07-30T23:33:12.229Z,54.81
2018-07-30T23:35:41.136Z,54.02
2018-07-30T23:38:10.066Z,54.72
2018-07-30T23:40:39.124Z,53.45
2018-07-30T23:43:08.082Z,54.41
2018-07-30T23:45:37.012Z,54.38
2018-07-30T23:48:06.085Z,53.50
2018-07-30T23:50:35.148Z,53.82
2018-07-30T23:53:04.096Z,53.06
2018-07-30T23:55:33.047Z,53.98
2018-07-30T23:58:01.968Z,53.47
